createdAt,value
2023-03-12T00:01:22.227Z,4.36
2023-03-12T00:03:49.774Z,4.36
2023-03-12T00:06:17.895Z,4.40
2023-03-12T00:08:45.053Z,4.45
2023-03-12T00:11:15.197Z,4.51
2023-03-12T00:13:42.170Z,4.54
2023-03-12T00:16:14.830Z,4.55
2023-03-12T00:18:42.748Z,4.57
2023-03-12T00:21:10.452Z,4.61
2023-03-12T00:23:37.235Z,4.65
2023-03-12T00:26:06.623Z,4.66
2023-03-12T00:28:34.972Z,4.67
2023-03-12T00:31:02.566Z,4.68
2023-03-12T00:33:29.733Z,4.70
2023-03-12T00:36:00.125Z,4.69
2023-03-12T00:38:26.734Z,4.72
2023-03-12T00:40:53.334Z,4.73
2023-03-12T00:43:19.918Z,4.76
2023-03-12T00:45:46.543Z,4.78
2023-03-12T00:48:13.228Z,4.79
2023-03-12T00:50:39.821Z,4.81
2023-03-12T00:53:06.559Z,4.86
2023-03-12T00:55:33.239Z,4.90
2023-03-12T00:57:59.854Z,4.95
2023-03-12T01:00:26.600Z,4.99
2023-03-12T01:02:53.315Z,5.04
2023-03-12T01:05:20.077Z,5.09
2023-03-12T01:07:46.686Z,5.15
2023-03-12T01:10:15.370Z,5.16
2023-03-12T01:12:43.016Z,5.20
2023-03-12T01:15:13.250Z,5.20
2023-03-12T01:17:39.886Z,5.23
2023-03-12T01:20:08.332Z,5.27
2023-03-12T01:22:36.011Z,5.27
2023-03-12T01:25:03.007Z,5.24
2023-03-12T01:27:29.614Z,5.24
2023-03-12T01:29:56.392Z,5.17
2023-03-12T01:32:23.118Z,5.10
2023-03-12T01:34:49.798Z,5.06
2023-03-12T01:37:16.405Z,5.01
2023-03-12T01:39:42.989Z,4.94
2023-03-12T01:42:09.721Z,4.97
2023-03-12T01:44:59.049Z,4.97
2023-03-12T01:47:27.061Z,4.89
2023-03-12T01:49:55.847Z,4.87
2023-03-12T01:52:27.185Z,4.86
2023-03-12T01:55:07.671Z,4.79
2023-03-12T01:57:43.699Z,4.76
2023-03-12T02:00:31.423Z,4.74
2023-03-12T02:03:06.254Z,4.76
2023-03-12T02:05:32.795Z,4.72
2023-03-12T02:07:59.663Z,4.70
2023-03-12T02:10:26.709Z,4.69
2023-03-12T02:12:53.866Z,4.63
2023-03-12T02:15:20.533Z,4.58
2023-03-12T02:17:47.156Z,4.52
2023-03-12T02:20:19.917Z,4.47
2023-03-12T02:23:00.047Z,4.47
2023-03-12T02:25:35.601Z,4.47
2023-03-12T02:28:05.351Z,4.45
2023-03-12T02:30:33.113Z,4.40
2023-03-12T02:33:02.982Z,4.39
2023-03-12T02:35:29.634Z,4.40
2023-03-12T02:37:57.083Z,4.44
2023-03-12T02:40:34.049Z,4.46
2023-03-12T02:43:03.280Z,4.48
2023-03-12T02:45:30.244Z,4.45
2023-03-12T02:47:56.949Z,4.48
2023-03-12T02:50:23.799Z,4.58
2023-03-12T02:52:50.577Z,4.67
2023-03-12T02:55:17.277Z,4.75
2023-03-12T02:57:44.009Z,4.86
2023-03-12T03:00:15.105Z,4.94
2023-03-12T03:02:42.603Z,5.03
2023-03-12T03:05:11.486Z,5.09
2023-03-12T03:07:38.498Z,5.15
2023-03-12T03:10:06.419Z,5.19
2023-03-12T03:12:36.964Z,5.22
2023-03-12T03:15:05.096Z,5.28
2023-03-12T03:17:31.913Z,5.32
2023-03-12T03:19:58.550Z,5.39
2023-03-12T03:22:25.137Z,5.48
2023-03-12T03:24:53.629Z,5.51
2023-03-12T03:27:20.617Z,5.54
2023-03-12T03:32:14.397Z,5.58
2023-03-12T03:34:40.983Z,5.62
2023-03-12T03:37:07.851Z,5.64
2023-03-12T03:39:34.702Z,5.68
2023-03-12T03:42:02.525Z,5.73
2023-03-12T03:44:30.410Z,5.77
2023-03-12T03:46:57.190Z,5.78
2023-03-12T03:49:23.944Z,5.81
2023-03-12T03:51:51.942Z,5.84
2023-03-12T03:54:19.277Z,5.83
2023-03-12T03:56:47.553Z,5.86
2023-03-12T03:59:14.160Z,5.87
2023-03-12T04:01:40.872Z,5.88
2023-03-12T04:04:07.475Z,5.89
2023-03-12T04:06:34.142Z,5.86
2023-03-12T04:09:00.828Z,5.84
2023-03-12T04:11:27.891Z,5.85
2023-03-12T04:13:54.553Z,5.85
2023-03-12T04:16:21.249Z,5.87
2023-03-12T04:18:47.972Z,5.87
2023-03-12T04:21:14.949Z,5.85
2023-03-12T04:23:42.097Z,5.82
2023-03-12T04:26:09.270Z,5.84
2023-03-12T04:28:37.128Z,5.87
2023-03-12T04:31:07.044Z,5.85
2023-03-12T04:33:37.135Z,5.83
2023-03-12T04:36:04.538Z,5.78
2023-03-12T04:38:31.364Z,5.73
2023-03-12T04:40:59.017Z,5.63
2023-03-12T04:43:26.198Z,5.59
2023-03-12T04:45:52.824Z,5.59
2023-03-12T04:48:19.460Z,5.58
2023-03-12T04:50:46.065Z,5.56
2023-03-12T04:53:12.879Z,5.55
2023-03-12T04:55:39.603Z,5.54
2023-03-12T04:58:06.300Z,5.55
2023-03-12T05:00:33.039Z,5.56
2023-03-12T05:02:59.711Z,5.60
2023-03-12T05:05:26.386Z,5.60
2023-03-12T05:07:52.990Z,5.62
2023-03-12T05:10:19.633Z,5.65
2023-03-12T05:12:46.278Z,5.68
2023-03-12T05:15:12.865Z,5.69
2023-03-12T05:17:39.609Z,5.69
2023-03-12T05:20:06.591Z,5.71
2023-03-12T05:22:33.249Z,5.72
2023-03-12T05:24:59.882Z,5.73
2023-03-12T05:27:26.562Z,5.75
2023-03-12T05:29:53.302Z,5.74
2023-03-12T05:32:20.031Z,5.74
2023-03-12T05:34:46.887Z,5.75
2023-03-12T05:37:13.527Z,5.75
2023-03-12T05:39:46.654Z,5.77
2023-03-12T05:42:15.007Z,5.76
2023-03-12T05:44:42.264Z,5.76
2023-03-12T05:47:09.280Z,5.73
2023-03-12T05:49:36.035Z,5.74
2023-03-12T05:52:02.823Z,5.73
2023-03-12T05:54:29.516Z,5.73
2023-03-12T05:56:56.660Z,5.73
2023-03-12T05:59:23.391Z,5.74
2023-03-12T06:01:50.006Z,5.70
2023-03-12T06:04:16.629Z,5.67
2023-03-12T06:06:43.245Z,5.65
2023-03-12T06:09:10.010Z,5.65
2023-03-12T06:11:36.788Z,5.58
2023-03-12T06:14:04.157Z,5.55
2023-03-12T06:16:31.035Z,5.56
2023-03-12T06:18:59.896Z,5.58
2023-03-12T06:21:29.837Z,5.58
2023-03-12T06:23:58.162Z,5.60
2023-03-12T06:26:25.264Z,5.62
2023-03-12T06:28:52.797Z,5.63
2023-03-12T06:31:21.073Z,5.63
2023-03-12T06:33:48.306Z,5.64
2023-03-12T06:36:14.931Z,5.64
2023-03-12T06:38:42.010Z,5.64
2023-03-12T06:41:19.472Z,5.64
2023-03-12T06:43:47.182Z,5.66
2023-03-12T06:46:16.991Z,5.67
2023-03-12T06:48:46.221Z,5.68
2023-03-12T06:51:14.838Z,5.68
2023-03-12T06:53:42.592Z,5.69
2023-03-12T06:56:10.061Z,5.69
2023-03-12T06:58:37.375Z,5.66
2023-03-12T07:01:04.972Z,5.62
2023-03-12T07:03:31.671Z,5.62
2023-03-12T07:05:58.645Z,5.59
2023-03-12T07:08:26.389Z,5.59
2023-03-12T07:10:53.020Z,5.56
2023-03-12T07:13:19.619Z,5.53
2023-03-12T07:15:46.635Z,5.50
2023-03-12T07:18:13.397Z,5.44
2023-03-12T07:20:43.295Z,5.46
2023-03-12T07:23:10.567Z,5.49
2023-03-12T07:25:42.353Z,5.50
2023-03-12T07:28:10.165Z,5.52
2023-03-12T07:30:37.310Z,5.51
2023-03-12T07:33:09.143Z,5.53
2023-03-12T07:35:38.852Z,5.56
2023-03-12T07:38:06.761Z,5.58
2023-03-12T07:40:33.418Z,5.62
2023-03-12T07:43:00.041Z,5.65
2023-03-12T07:45:26.799Z,5.68
2023-03-12T07:47:53.663Z,5.74
2023-03-12T07:50:20.586Z,5.80
2023-03-12T07:52:48.040Z,5.85
2023-03-12T07:55:16.493Z,5.94
2023-03-12T07:57:43.497Z,6.00
2023-03-12T08:00:11.214Z,6.09
2023-03-12T08:02:38.033Z,6.19
2023-03-12T08:05:05.434Z,6.28
2023-03-12T08:07:33.124Z,6.37
2023-03-12T08:10:00.322Z,6.48
2023-03-12T08:12:28.308Z,6.58
2023-03-12T08:14:55.382Z,6.66
2023-03-12T08:17:22.738Z,6.71
2023-03-12T08:19:49.374Z,6.73
2023-03-12T08:22:16.008Z,6.73
2023-03-12T08:24:43.272Z,6.77
2023-03-12T08:27:12.164Z,6.83
2023-03-12T08:29:40.466Z,6.92
2023-03-12T08:32:07.444Z,6.94
2023-03-12T08:34:34.870Z,6.97
2023-03-12T08:37:02.928Z,7.04
2023-03-12T08:39:29.923Z,7.08
2023-03-12T08:41:56.748Z,7.11
2023-03-12T08:44:23.740Z,7.12
2023-03-12T08:46:52.055Z,7.20
2023-03-12T08:49:19.509Z,7.26
2023-03-12T08:51:46.366Z,7.34
2023-03-12T08:54:12.998Z,7.44
2023-03-12T08:56:42.528Z,7.53
2023-03-12T08:59:13.278Z,7.60
2023-03-12T09:01:43.747Z,7.66
2023-03-12T09:04:10.695Z,7.73
2023-03-12T09:06:38.571Z,7.79
2023-03-12T09:09:05.786Z,7.82
2023-03-12T09:11:34.261Z,7.85
2023-03-12T09:14:49.860Z,7.96
2023-03-12T09:16:48.404Z,8.02
2023-03-12T09:19:15.298Z,8.08
2023-03-12T09:21:42.069Z,8.14
2023-03-12T09:24:09.788Z,8.26
2023-03-12T09:26:36.404Z,8.28
2023-03-12T09:29:03.027Z,8.26
2023-03-12T09:31:29.649Z,8.30
2023-03-12T09:33:56.348Z,8.37
2023-03-12T09:36:23.297Z,8.48
2023-03-12T09:38:50.003Z,8.63
2023-03-12T09:41:20.933Z,8.68
2023-03-12T09:44:32.471Z,8.67
2023-03-12T09:47:08.511Z,8.70
2023-03-12T09:49:51.315Z,8.70
2023-03-12T09:52:24.609Z,8.73
2023-03-12T09:55:14.836Z,8.75
2023-03-12T09:57:41.749Z,8.87
2023-03-12T10:00:13.722Z,8.93
2023-03-12T10:03:01.702Z,9.03
2023-03-12T10:05:41.312Z,9.14
2023-03-12T10:08:25.822Z,9.24
2023-03-12T10:11:28.090Z,9.23
2023-03-12T10:14:29.910Z,9.26
2023-03-12T10:17:06.035Z,9.31
2023-03-12T10:19:50.842Z,9.38
2023-03-12T10:22:38.720Z,9.41
2023-03-12T10:25:35.534Z,9.44
2023-03-12T10:28:14.596Z,9.55
2023-03-12T10:30:46.427Z,9.65
2023-03-12T10:33:17.292Z,9.76
2023-03-12T10:35:44.081Z,9.81
2023-03-12T10:38:27.803Z,9.82
2023-03-12T10:40:54.501Z,9.94
2023-03-12T10:43:21.446Z,10.00
2023-03-12T10:46:11.073Z,10.03
2023-03-12T10:48:37.689Z,10.08
2023-03-12T10:51:10.308Z,10.16
2023-03-12T10:53:39.443Z,10.20
2023-03-12T10:56:10.807Z,10.30
2023-03-12T10:58:49.198Z,10.35
2023-03-12T11:01:18.917Z,10.51
2023-03-12T11:03:46.265Z,10.58
2023-03-12T11:06:28.772Z,10.68
2023-03-12T11:09:21.923Z,10.66
2023-03-12T11:11:50.477Z,10.82
2023-03-12T11:14:26.335Z,10.87
2023-03-12T11:16:54.216Z,10.97
2023-03-12T11:19:30.987Z,11.06
2023-03-12T11:22:00.697Z,11.05
2023-03-12T11:24:27.565Z,11.04
2023-03-12T11:27:06.581Z,11.07
2023-03-12T11:29:40.280Z,11.09
2023-03-12T11:32:17.918Z,11.00
2023-03-12T11:34:49.694Z,10.92
2023-03-12T11:37:34.456Z,10.86
2023-03-12T11:40:09.995Z,10.90
2023-03-12T11:42:42.748Z,11.00
2023-03-12T11:45:24.562Z,11.09
2023-03-12T11:48:03.194Z,11.13
2023-03-12T11:50:48.634Z,11.17
2023-03-12T11:53:37.276Z,11.21
2023-03-12T11:56:24.931Z,11.27
2023-03-12T11:59:23.007Z,11.24
2023-03-12T12:02:15.163Z,11.20
2023-03-12T12:04:53.198Z,11.22
2023-03-12T12:07:55.408Z,11.23
2023-03-12T12:10:45.341Z,11.15
2023-03-12T12:13:33.683Z,11.24
2023-03-12T12:16:03.453Z,11.32
2023-03-12T12:18:54.841Z,11.46
2023-03-12T12:21:47.777Z,11.51
2023-03-12T12:24:29.693Z,11.57
2023-03-12T12:27:15.337Z,11.66
2023-03-12T12:30:09.871Z,11.73
2023-03-12T12:33:02.989Z,11.77
2023-03-12T12:35:34.652Z,11.72
2023-03-12T12:38:18.054Z,11.73
2023-03-12T12:40:55.553Z,11.80
2023-03-12T12:43:30.289Z,11.90
2023-03-12T12:46:02.101Z,11.95
2023-03-12T12:48:35.070Z,11.95
2023-03-12T12:51:04.346Z,12.06
2023-03-12T12:53:47.063Z,12.01
2023-03-12T12:56:43.679Z,12.00
2023-03-12T12:59:38.671Z,11.95
2023-03-12T13:02:16.913Z,11.94
2023-03-12T13:04:44.451Z,11.90
2023-03-12T13:07:13.866Z,11.88
2023-03-12T13:09:46.353Z,11.77
2023-03-12T13:12:27.512Z,11.69
2023-03-12T13:14:56.656Z,11.69
2023-03-12T13:17:34.312Z,11.65
2023-03-12T13:20:11.109Z,11.57
2023-03-12T13:22:37.616Z,11.56
2023-03-12T13:25:41.568Z,11.50
2023-03-12T13:28:26.603Z,11.47
2023-03-12T13:30:54.245Z,11.48
2023-03-12T13:33:42.586Z,11.43
2023-03-12T13:36:24.245Z,11.49
2023-03-12T13:39:01.810Z,11.49
2023-03-12T13:41:37.666Z,11.49
2023-03-12T13:44:23.076Z,11.55
2023-03-12T13:47:11.595Z,11.54
2023-03-12T13:49:52.481Z,11.55
2023-03-12T13:52:24.098Z,11.58
2023-03-12T13:55:03.421Z,11.57
2023-03-12T13:57:45.933Z,11.61
2023-03-12T14:00:19.510Z,11.61
2023-03-12T14:03:00.001Z,11.56
2023-03-12T14:05:29.035Z,11.49
2023-03-12T14:08:14.169Z,11.44
2023-03-12T14:11:06.667Z,11.38
2023-03-12T14:13:51.359Z,11.37
2023-03-12T14:16:42.105Z,11.40
2023-03-12T14:19:17.955Z,11.34
2023-03-12T14:21:47.583Z,11.31
2023-03-12T14:24:32.472Z,11.30
2023-03-12T14:27:01.509Z,11.28
2023-03-12T14:29:39.518Z,11.28
2023-03-12T14:32:15.579Z,11.27
2023-03-12T14:34:46.535Z,11.25
2023-03-12T14:37:28.670Z,11.20
2023-03-12T14:40:02.653Z,11.13
2023-03-12T14:42:32.454Z,11.11
2023-03-12T14:45:01.748Z,11.12
2023-03-12T14:47:28.847Z,11.10
2023-03-12T14:49:57.667Z,11.09
2023-03-12T14:52:30.203Z,11.06
2023-03-12T14:55:02.349Z,11.02
2023-03-12T14:57:29.144Z,11.02
2023-03-12T15:00:00.884Z,11.01
2023-03-12T15:02:30.780Z,11.02
2023-03-12T15:05:01.623Z,11.02
2023-03-12T15:07:40.244Z,10.99
2023-03-12T15:10:19.490Z,11.00
2023-03-12T15:12:46.913Z,10.95
2023-03-12T15:15:42.287Z,10.97
2023-03-12T15:18:18.728Z,10.90
2023-03-12T15:20:48.212Z,10.85
2023-03-12T15:23:17.588Z,10.82
2023-03-12T15:25:45.090Z,10.81
2023-03-12T15:28:11.674Z,10.78
2023-03-12T15:30:40.263Z,10.76
2023-03-12T15:33:12.424Z,10.69
2023-03-12T15:35:58.207Z,10.68
2023-03-12T15:38:25.652Z,10.64
2023-03-12T15:40:56.076Z,10.63
2023-03-12T15:43:24.481Z,10.61
2023-03-12T15:46:05.881Z,10.58
2023-03-12T15:48:36.570Z,10.60
2023-03-12T15:51:03.572Z,10.54
2023-03-12T15:53:34.798Z,10.50
2023-03-12T15:56:06.412Z,10.50
2023-03-12T15:58:36.429Z,10.49
2023-03-12T16:01:10.772Z,10.43
2023-03-12T16:03:38.436Z,10.41
2023-03-12T16:06:06.206Z,10.43
2023-03-12T16:08:40.865Z,10.40
2023-03-12T16:11:16.871Z,10.36
2023-03-12T16:13:45.025Z,10.37
2023-03-12T16:16:13.721Z,10.35
2023-03-12T16:18:42.109Z,10.32
2023-03-12T16:21:09.632Z,10.30
2023-03-12T16:23:36.882Z,10.30
2023-03-12T16:26:05.457Z,10.29
2023-03-12T16:28:35.145Z,10.28
2023-03-12T16:31:02.234Z,10.27
2023-03-12T16:33:28.881Z,10.27
2023-03-12T16:35:55.990Z,10.27
2023-03-12T16:38:22.757Z,10.25
2023-03-12T16:40:50.945Z,10.23
2023-03-12T16:43:25.682Z,10.28
2023-03-12T16:45:54.043Z,10.32
2023-03-12T16:48:26.665Z,10.27
2023-03-12T16:50:56.747Z,10.27
2023-03-12T16:53:24.174Z,10.29
2023-03-12T16:55:57.602Z,10.26
2023-03-12T16:58:26.089Z,10.28
2023-03-12T17:00:55.716Z,10.27
2023-03-12T17:03:38.267Z,10.30
2023-03-12T17:06:06.962Z,10.30
2023-03-12T17:08:33.827Z,10.28
2023-03-12T17:11:00.526Z,10.24
2023-03-12T17:13:28.803Z,10.24
2023-03-12T17:15:56.809Z,10.20
2023-03-12T17:18:23.624Z,10.19
2023-03-12T17:20:51.840Z,10.21
2023-03-12T17:23:19.427Z,10.22
2023-03-12T17:25:46.522Z,10.18
2023-03-12T17:28:15.266Z,10.14
2023-03-12T17:30:42.542Z,10.09
2023-03-12T17:33:12.252Z,9.99
2023-03-12T17:35:39.961Z,9.98
2023-03-12T17:38:06.768Z,9.91
2023-03-12T17:40:34.049Z,9.91
2023-03-12T17:43:00.747Z,9.90
2023-03-12T17:45:27.419Z,9.87
2023-03-12T17:47:54.074Z,9.82
2023-03-12T17:50:20.884Z,9.81
2023-03-12T17:52:47.562Z,9.81
2023-03-12T17:55:14.205Z,9.81
2023-03-12T17:57:41.162Z,9.76
2023-03-12T18:00:10.887Z,9.70
2023-03-12T18:02:37.586Z,9.64
2023-03-12T18:05:04.492Z,9.59
2023-03-12T18:07:31.099Z,9.53
2023-03-12T18:09:57.677Z,9.53
2023-03-12T18:12:24.303Z,9.49
2023-03-12T18:14:50.908Z,9.46
2023-03-12T18:17:17.569Z,9.43
2023-03-12T18:19:44.512Z,9.36
2023-03-12T18:22:14.162Z,9.32
2023-03-12T18:24:41.688Z,9.31
2023-03-12T18:27:08.656Z,9.24
2023-03-12T18:29:39.835Z,9.22
2023-03-12T18:32:07.329Z,9.22
2023-03-12T18:34:34.016Z,9.23
2023-03-12T18:37:00.658Z,9.22
2023-03-12T18:39:27.359Z,9.17
2023-03-12T18:41:56.819Z,9.17
2023-03-12T18:44:23.485Z,9.16
2023-03-12T18:46:51.866Z,9.15
2023-03-12T18:49:18.644Z,9.15
2023-03-12T18:51:45.475Z,9.14
2023-03-12T18:54:12.901Z,9.13
2023-03-12T18:56:40.946Z,9.11
2023-03-12T18:59:09.883Z,9.10
2023-03-12T19:01:37.153Z,9.08
2023-03-12T19:04:04.332Z,9.12
2023-03-12T19:06:37.834Z,9.10
2023-03-12T19:09:14.725Z,9.15
2023-03-12T19:11:41.545Z,9.15
2023-03-12T19:14:08.167Z,9.14
2023-03-12T19:16:34.953Z,9.14
2023-03-12T19:19:01.738Z,9.17
2023-03-12T19:21:28.467Z,9.17
2023-03-12T19:23:55.165Z,9.12
2023-03-12T19:26:22.328Z,9.18
2023-03-12T19:28:49.126Z,9.19
2023-03-12T19:31:15.949Z,9.18
2023-03-12T19:33:43.260Z,9.19
2023-03-12T19:36:10.011Z,9.22
2023-03-12T19:38:36.874Z,9.23
2023-03-12T19:41:03.710Z,9.23
2023-03-12T19:43:30.336Z,9.23
2023-03-12T19:45:57.086Z,9.24
2023-03-12T19:48:25.409Z,9.23
2023-03-12T19:50:53.797Z,9.26
2023-03-12T19:53:21.030Z,9.24
2023-03-12T19:55:48.835Z,9.29
2023-03-12T19:58:16.234Z,9.29
2023-03-12T20:00:44.355Z,9.30
2023-03-12T20:03:11.202Z,9.30
2023-03-12T20:05:37.909Z,9.26
2023-03-12T20:08:04.628Z,9.29
2023-03-12T20:10:32.372Z,9.30
2023-03-12T20:12:59.246Z,9.33
2023-03-12T20:15:26.435Z,9.34
2023-03-12T20:17:58.359Z,9.34
2023-03-12T20:20:25.696Z,9.36
2023-03-12T20:22:52.534Z,9.35
2023-03-12T20:25:19.217Z,9.34
2023-03-12T20:27:47.186Z,9.33
2023-03-12T20:30:14.775Z,9.32
2023-03-12T20:32:42.995Z,9.34
2023-03-12T20:35:10.492Z,9.34
2023-03-12T20:37:37.273Z,9.32
2023-03-12T20:40:05.272Z,9.31
2023-03-12T20:42:31.845Z,9.32
2023-03-12T20:44:58.652Z,9.34
2023-03-12T20:47:25.306Z,9.32
2023-03-12T20:49:52.105Z,9.34
2023-03-12T20:52:18.784Z,9.33
2023-03-12T20:54:45.440Z,9.34
2023-03-12T20:57:12.158Z,9.35
2023-03-12T20:59:38.841Z,9.39
2023-03-12T21:02:05.452Z,9.41
2023-03-12T21:04:32.083Z,9.39
2023-03-12T21:06:58.823Z,9.40
2023-03-12T21:09:25.456Z,9.40
2023-03-12T21:11:52.107Z,9.43
2023-03-12T21:14:18.755Z,9.43
2023-03-12T21:16:45.548Z,9.46
2023-03-12T21:19:12.312Z,9.44
2023-03-12T21:21:39.041Z,9.46
2023-03-12T21:24:05.872Z,9.46
2023-03-12T21:26:32.548Z,9.47
2023-03-12T21:28:59.151Z,9.49
2023-03-12T21:31:27.048Z,9.51
2023-03-12T21:33:59.603Z,9.52
2023-03-12T21:36:26.764Z,9.56
2023-03-12T21:38:53.523Z,9.57
2023-03-12T21:41:20.849Z,9.58
2023-03-12T21:43:47.788Z,9.61
2023-03-12T21:46:17.434Z,9.63
2023-03-12T21:48:46.055Z,9.64
2023-03-12T21:51:15.229Z,9.68
2023-03-12T21:53:42.109Z,9.69
2023-03-12T21:56:09.524Z,9.71
2023-03-12T21:58:36.704Z,9.73
2023-03-12T22:01:07.674Z,9.75
2023-03-12T22:03:34.955Z,9.78
2023-03-12T22:06:01.808Z,9.78
2023-03-12T22:08:29.437Z,9.80
2023-03-12T22:10:56.063Z,9.79
2023-03-12T22:13:22.763Z,9.79
2023-03-12T22:16:01.288Z,9.79
2023-03-12T22:18:29.359Z,9.83
2023-03-12T22:21:00.915Z,9.83
2023-03-12T22:23:29.580Z,9.85
2023-03-12T22:25:59.579Z,9.86
2023-03-12T22:28:26.202Z,9.87
2023-03-12T22:31:07.268Z,9.85
2023-03-12T22:33:38.597Z,9.90
2023-03-12T22:36:10.629Z,9.90
2023-03-12T22:38:38.250Z,9.90
2023-03-12T22:41:22.002Z,9.90
2023-03-12T22:43:50.396Z,9.89
2023-03-12T22:46:20.604Z,9.90
2023-03-12T22:48:51.961Z,9.93
2023-03-12T22:51:19.468Z,9.93
2023-03-12T22:53:46.692Z,9.95
2023-03-12T22:56:13.963Z,9.94
2023-03-12T22:58:41.158Z,9.96
2023-03-12T23:01:10.559Z,9.99
2023-03-12T23:03:38.775Z,10.01
2023-03-12T23:06:10.358Z,9.99
2023-03-12T23:08:37.443Z,10.00
2023-03-12T23:11:05.677Z,10.04
2023-03-12T23:13:34.474Z,10.04
2023-03-12T23:16:16.834Z,10.05
2023-03-12T23:18:44.605Z,10.08
2023-03-12T23:21:14.271Z,10.08
2023-03-12T23:23:43.506Z,10.09
2023-03-12T23:26:22.826Z,10.11
2023-03-12T23:28:51.859Z,10.14
2023-03-12T23:31:19.027Z,10.15
2023-03-12T23:33:45.704Z,10.17
2023-03-12T23:36:15.751Z,10.18
2023-03-12T23:38:43.187Z,10.19
2023-03-12T23:41:17.287Z,10.21
2023-03-12T23:43:44.395Z,10.24
2023-03-12T23:46:12.271Z,10.24
2023-03-12T23:48:40.413Z,10.24
2023-03-12T23:51:12.395Z,10.26
2023-03-12T23:53:41.172Z,10.28
2023-03-12T23:56:11.391Z,10.32
2023-03-12T23:58:38.202Z,10.29
